sensor_id;sensor_type;location;lat;lon;timestamp;P1;durP1;ratioP1;P2;durP2;ratioP2
46731;SDS011;32477;51.474;5.696;2023-02-28T00:00:39;16.30;;;8.55;;
46731;SDS011;32477;51.474;5.696;2023-02-28T00:03:05;18.80;;;8.80;;
46731;SDS011;32477;51.474;5.696;2023-02-28T00:05:31;12.90;;;8.07;;
46731;SDS011;32477;51.474;5.696;2023-02-28T00:07:56;15.57;;;9.10;;
46731;SDS011;32477;51.474;5.696;2023-02-28T00:10:23;24.40;;;9.38;;
46731;SDS011;32477;51.474;5.696;2023-02-28T00:12:51;19.02;;;8.95;;
46731;SDS011;32477;51.474;5.696;2023-02-28T00:15:18;20.75;;;9.65;;
46731;SDS011;32477;51.474;5.696;2023-02-28T00:17:44;23.27;;;9.75;;
46731;SDS011;32477;51.474;5.696;2023-02-28T00:20:11;19.90;;;10.25;;
46731;SDS011;32477;51.474;5.696;2023-02-28T00:22:38;21.27;;;10.55;;
46731;SDS011;32477;51.474;5.696;2023-02-28T00:25:05;17.70;;;9.18;;
46731;SDS011;32477;51.474;5.696;2023-02-28T00:27:32;24.52;;;10.35;;
46731;SDS011;32477;51.474;5.696;2023-02-28T00:29:58;24.42;;;11.38;;
46731;SDS011;32477;51.474;5.696;2023-02-28T00:32:24;23.27;;;9.63;;
46731;SDS011;32477;51.474;5.696;2023-02-28T00:34:50;21.25;;;10.77;;
46731;SDS011;32477;51.474;5.696;2023-02-28T00:37:15;21.35;;;9.75;;
46731;SDS011;32477;51.474;5.696;2023-02-28T00:39:41;20.85;;;10.68;;
46731;SDS011;32477;51.474;5.696;2023-02-28T00:42:07;19.48;;;10.55;;
46731;SDS011;32477;51.474;5.696;2023-02-28T00:44:33;20.63;;;10.30;;
46731;SDS011;32477;51.474;5.696;2023-02-28T00:46:59;27.55;;;10.88;;
46731;SDS011;32477;51.474;5.696;2023-02-28T00:49:28;19.65;;;8.63;;
46731;SDS011;32477;51.474;5.696;2023-02-28T00:51:54;16.88;;;9.85;;
46731;SDS011;32477;51.474;5.696;2023-02-28T00:54:21;25.70;;;9.90;;
46731;SDS011;32477;51.474;5.696;2023-02-28T00:56:47;23.33;;;10.85;;
46731;SDS011;32477;51.474;5.696;2023-02-28T00:59:13;19.58;;;10.18;;
46731;SDS011;32477;51.474;5.696;2023-02-28T01:01:40;20.30;;;9.68;;
46731;SDS011;32477;51.474;5.696;2023-02-28T01:04:06;20.38;;;9.50;;
46731;SDS011;32477;51.474;5.696;2023-02-28T01:06:32;20.67;;;10.20;;
46731;SDS011;32477;51.474;5.696;2023-02-28T01:08:58;15.55;;;8.65;;
46731;SDS011;32477;51.474;5.696;2023-02-28T01:11:24;17.48;;;9.57;;
46731;SDS011;32477;51.474;5.696;2023-02-28T01:13:50;19.17;;;9.88;;
46731;SDS011;32477;51.474;5.696;2023-02-28T01:16:16;19.67;;;9.63;;
46731;SDS011;32477;51.474;5.696;2023-02-28T01:18:42;28.23;;;9.77;;
46731;SDS011;32477;51.474;5.696;2023-02-28T01:21:13;20.45;;;10.43;;
46731;SDS011;32477;51.474;5.696;2023-02-28T01:23:40;23.88;;;9.13;;
46731;SDS011;32477;51.474;5.696;2023-02-28T01:26:06;20.55;;;11.10;;
46731;SDS011;32477;51.474;5.696;2023-02-28T01:28:33;19.63;;;10.75;;
46731;SDS011;32477;51.474;5.696;2023-02-28T01:30:59;23.23;;;11.70;;
46731;SDS011;32477;51.474;5.696;2023-02-28T01:33:25;22.35;;;10.80;;
46731;SDS011;32477;51.474;5.696;2023-02-28T01:36:01;23.27;;;11.68;;
46731;SDS011;32477;51.474;5.696;2023-02-28T01:38:29;24.75;;;11.48;;
46731;SDS011;32477;51.474;5.696;2023-02-28T01:40:55;25.33;;;11.98;;
46731;SDS011;32477;51.474;5.696;2023-02-28T01:45:51;22.60;;;12.80;;
46731;SDS011;32477;51.474;5.696;2023-02-28T01:48:18;24.20;;;12.48;;
46731;SDS011;32477;51.474;5.696;2023-02-28T01:50:45;22.15;;;12.02;;
46731;SDS011;32477;51.474;5.696;2023-02-28T01:53:14;31.05;;;12.95;;
46731;SDS011;32477;51.474;5.696;2023-02-28T01:55:44;27.90;;;11.45;;
46731;SDS011;32477;51.474;5.696;2023-02-28T01:58:14;26.67;;;12.45;;
46731;SDS011;32477;51.474;5.696;2023-02-28T02:00:41;31.70;;;13.00;;
46731;SDS011;32477;51.474;5.696;2023-02-28T02:03:11;29.05;;;11.40;;
46731;SDS011;32477;51.474;5.696;2023-02-28T02:05:39;30.27;;;11.93;;
46731;SDS011;32477;51.474;5.696;2023-02-28T02:08:12;25.70;;;11.95;;
46731;SDS011;32477;51.474;5.696;2023-02-28T02:10:42;21.85;;;11.82;;
46731;SDS011;32477;51.474;5.696;2023-02-28T02:18:47;26.63;;;12.07;;
46731;SDS011;32477;51.474;5.696;2023-02-28T02:26:46;25.67;;;11.50;;
46731;SDS011;32477;51.474;5.696;2023-02-28T02:29:41;30.13;;;10.95;;
46731;SDS011;32477;51.474;5.696;2023-02-28T02:35:09;23.38;;;11.48;;
46731;SDS011;32477;51.474;5.696;2023-02-28T02:40:20;27.05;;;10.60;;
46731;SDS011;32477;51.474;5.696;2023-02-28T02:48:18;20.10;;;10.63;;
46731;SDS011;32477;51.474;5.696;2023-02-28T02:50:48;27.85;;;11.65;;
46731;SDS011;32477;51.474;5.696;2023-02-28T02:53:18;25.38;;;11.38;;
46731;SDS011;32477;51.474;5.696;2023-02-28T02:55:48;23.92;;;11.18;;
46731;SDS011;32477;51.474;5.696;2023-02-28T02:58:20;30.02;;;12.00;;
46731;SDS011;32477;51.474;5.696;2023-02-28T03:00:50;18.95;;;11.32;;
46731;SDS011;32477;51.474;5.696;2023-02-28T03:03:19;23.98;;;12.35;;
46731;SDS011;32477;51.474;5.696;2023-02-28T03:05:53;27.13;;;11.65;;
46731;SDS011;32477;51.474;5.696;2023-02-28T03:08:21;21.60;;;11.35;;
46731;SDS011;32477;51.474;5.696;2023-02-28T03:11:06;25.77;;;10.95;;
46731;SDS011;32477;51.474;5.696;2023-02-28T03:13:44;25.20;;;11.30;;
46731;SDS011;32477;51.474;5.696;2023-02-28T03:27:42;17.05;;;8.73;;
46731;SDS011;32477;51.474;5.696;2023-02-28T03:33:19;16.40;;;8.32;;
46731;SDS011;32477;51.474;5.696;2023-02-28T03:35:51;17.52;;;8.43;;
46731;SDS011;32477;51.474;5.696;2023-02-28T03:38:26;18.48;;;8.48;;
46731;SDS011;32477;51.474;5.696;2023-02-28T03:44:21;16.10;;;8.90;;
46731;SDS011;32477;51.474;5.696;2023-02-28T03:46:57;13.40;;;8.05;;
46731;SDS011;32477;51.474;5.696;2023-02-28T03:49:56;13.65;;;8.15;;
46731;SDS011;32477;51.474;5.696;2023-02-28T03:52:34;19.10;;;8.23;;
46731;SDS011;32477;51.474;5.696;2023-02-28T03:55:05;17.27;;;7.53;;
46731;SDS011;32477;51.474;5.696;2023-02-28T04:00:14;16.27;;;8.23;;
46731;SDS011;32477;51.474;5.696;2023-02-28T04:02:45;15.55;;;7.45;;
46731;SDS011;32477;51.474;5.696;2023-02-28T04:05:11;9.50;;;6.00;;
46731;SDS011;32477;51.474;5.696;2023-02-28T04:07:36;17.13;;;7.47;;
46731;SDS011;32477;51.474;5.696;2023-02-28T04:10:03;13.43;;;6.75;;
46731;SDS011;32477;51.474;5.696;2023-02-28T04:12:29;13.75;;;6.60;;
46731;SDS011;32477;51.474;5.696;2023-02-28T04:14:55;12.63;;;6.90;;
46731;SDS011;32477;51.474;5.696;2023-02-28T04:17:20;12.10;;;5.85;;
46731;SDS011;32477;51.474;5.696;2023-02-28T04:19:46;13.55;;;6.65;;
46731;SDS011;32477;51.474;5.696;2023-02-28T04:22:11;13.10;;;6.68;;
46731;SDS011;32477;51.474;5.696;2023-02-28T04:24:38;11.90;;;6.60;;
46731;SDS011;32477;51.474;5.696;2023-02-28T04:27:06;11.95;;;5.65;;
46731;SDS011;32477;51.474;5.696;2023-02-28T04:29:32;16.13;;;6.07;;
46731;SDS011;32477;51.474;5.696;2023-02-28T04:31:57;15.38;;;6.13;;
46731;SDS011;32477;51.474;5.696;2023-02-28T04:34:25;12.10;;;6.03;;
46731;SDS011;32477;51.474;5.696;2023-02-28T04:36:53;15.50;;;5.97;;
46731;SDS011;32477;51.474;5.696;2023-02-28T04:39:20;12.50;;;7.13;;
46731;SDS011;32477;51.474;5.696;2023-02-28T04:41:46;10.55;;;5.68;;
46731;SDS011;32477;51.474;5.696;2023-02-28T04:44:12;9.75;;;5.88;;
46731;SDS011;32477;51.474;5.696;2023-02-28T04:46:38;12.43;;;6.03;;
46731;SDS011;32477;51.474;5.696;2023-02-28T04:49:04;13.70;;;6.10;;
46731;SDS011;32477;51.474;5.696;2023-02-28T04:51:29;10.13;;;5.88;;
46731;SDS011;32477;51.474;5.696;2023-02-28T04:53:55;11.52;;;6.18;;
46731;SDS011;32477;51.474;5.696;2023-02-28T04:56:21;12.55;;;6.47;;
46731;SDS011;32477;51.474;5.696;2023-02-28T04:58:48;11.75;;;6.63;;
46731;SDS011;32477;51.474;5.696;2023-02-28T05:01:18;8.95;;;6.00;;
46731;SDS011;32477;51.474;5.696;2023-02-28T05:03:50;10.73;;;5.82;;
46731;SDS011;32477;51.474;5.696;2023-02-28T05:06:18;9.93;;;5.97;;
46731;SDS011;32477;51.474;5.696;2023-02-28T05:08:45;9.82;;;5.40;;
46731;SDS011;32477;51.474;5.696;2023-02-28T05:11:15;13.35;;;6.53;;
46731;SDS011;32477;51.474;5.696;2023-02-28T05:13:41;17.17;;;7.13;;
46731;SDS011;32477;51.474;5.696;2023-02-28T05:16:07;18.20;;;6.88;;
46731;SDS011;32477;51.474;5.696;2023-02-28T05:18:32;14.30;;;6.75;;
46731;SDS011;32477;51.474;5.696;2023-02-28T05:20:59;13.23;;;6.25;;
46731;SDS011;32477;51.474;5.696;2023-02-28T05:23:27;19.08;;;6.22;;
46731;SDS011;32477;51.474;5.696;2023-02-28T05:25:52;16.17;;;6.18;;
46731;SDS011;32477;51.474;5.696;2023-02-28T05:28:19;14.25;;;5.50;;
46731;SDS011;32477;51.474;5.696;2023-02-28T05:30:45;9.45;;;5.35;;
46731;SDS011;32477;51.474;5.696;2023-02-28T05:33:11;12.18;;;5.85;;
46731;SDS011;32477;51.474;5.696;2023-02-28T05:35:41;10.60;;;5.75;;
46731;SDS011;32477;51.474;5.696;2023-02-28T05:38:09;10.98;;;6.28;;
46731;SDS011;32477;51.474;5.696;2023-02-28T05:40:35;12.55;;;6.18;;
46731;SDS011;32477;51.474;5.696;2023-02-28T05:43:04;11.75;;;5.82;;
46731;SDS011;32477;51.474;5.696;2023-02-28T05:45:29;14.10;;;6.43;;
46731;SDS011;32477;51.474;5.696;2023-02-28T05:47:55;14.00;;;6.55;;
46731;SDS011;32477;51.474;5.696;2023-02-28T05:50:21;13.50;;;6.57;;
46731;SDS011;32477;51.474;5.696;2023-02-28T05:52:50;11.05;;;6.68;;
46731;SDS011;32477;51.474;5.696;2023-02-28T05:55:16;9.55;;;5.57;;
46731;SDS011;32477;51.474;5.696;2023-02-28T05:57:43;16.50;;;7.65;;
46731;SDS011;32477;51.474;5.696;2023-02-28T06:00:09;16.75;;;6.53;;
46731;SDS011;32477;51.474;5.696;2023-02-28T06:02:35;12.43;;;6.05;;
46731;SDS011;32477;51.474;5.696;2023-02-28T06:05:01;12.30;;;6.25;;
46731;SDS011;32477;51.474;5.696;2023-02-28T06:07:26;16.58;;;6.63;;
46731;SDS011;32477;51.474;5.696;2023-02-28T06:09:52;11.90;;;6.40;;
46731;SDS011;32477;51.474;5.696;2023-02-28T06:12:18;10.07;;;6.43;;
46731;SDS011;32477;51.474;5.696;2023-02-28T06:14:43;11.10;;;6.70;;
46731;SDS011;32477;51.474;5.696;2023-02-28T06:17:09;11.65;;;6.88;;
46731;SDS011;32477;51.474;5.696;2023-02-28T06:19:36;12.55;;;6.22;;
46731;SDS011;32477;51.474;5.696;2023-02-28T06:22:03;11.88;;;6.28;;
46731;SDS011;32477;51.474;5.696;2023-02-28T06:24:29;9.30;;;5.72;;
46731;SDS011;32477;51.474;5.696;2023-02-28T06:26:56;15.82;;;6.43;;
46731;SDS011;32477;51.474;5.696;2023-02-28T06:29:24;16.13;;;6.10;;
46731;SDS011;32477;51.474;5.696;2023-02-28T06:31:50;9.70;;;5.45;;
46731;SDS011;32477;51.474;5.696;2023-02-28T06:34:15;13.25;;;5.88;;
46731;SDS011;32477;51.474;5.696;2023-02-28T06:36:41;12.57;;;5.97;;
46731;SDS011;32477;51.474;5.696;2023-02-28T06:39:08;12.55;;;6.40;;
46731;SDS011;32477;51.474;5.696;2023-02-28T06:41:34;14.00;;;5.75;;
46731;SDS011;32477;51.474;5.696;2023-02-28T06:44:05;9.80;;;5.68;;
46731;SDS011;32477;51.474;5.696;2023-02-28T06:46:36;11.57;;;6.13;;
46731;SDS011;32477;51.474;5.696;2023-02-28T06:49:03;11.18;;;6.43;;
46731;SDS011;32477;51.474;5.696;2023-02-28T06:51:28;15.30;;;5.55;;
46731;SDS011;32477;51.474;5.696;2023-02-28T06:53:54;14.57;;;5.38;;
46731;SDS011;32477;51.474;5.696;2023-02-28T06:56:20;12.50;;;7.32;;
46731;SDS011;32477;51.474;5.696;2023-02-28T06:58:46;10.73;;;5.70;;
46731;SDS011;32477;51.474;5.696;2023-02-28T07:01:13;12.95;;;6.18;;
46731;SDS011;32477;51.474;5.696;2023-02-28T07:03:39;10.93;;;4.95;;
46731;SDS011;32477;51.474;5.696;2023-02-28T07:06:05;13.30;;;5.80;;
46731;SDS011;32477;51.474;5.696;2023-02-28T07:08:31;12.95;;;5.22;;
46731;SDS011;32477;51.474;5.696;2023-02-28T07:10:56;12.55;;;5.22;;
46731;SDS011;32477;51.474;5.696;2023-02-28T07:13:23;15.65;;;5.75;;
46731;SDS011;32477;51.474;5.696;2023-02-28T07:18:21;15.07;;;5.82;;
46731;SDS011;32477;51.474;5.696;2023-02-28T07:20:47;9.32;;;5.43;;
46731;SDS011;32477;51.474;5.696;2023-02-28T07:23:13;8.40;;;4.97;;
46731;SDS011;32477;51.474;5.696;2023-02-28T07:25:39;9.43;;;5.07;;
46731;SDS011;32477;51.474;5.696;2023-02-28T07:28:04;13.02;;;5.65;;
46731;SDS011;32477;51.474;5.696;2023-02-28T07:30:30;27.70;;;6.43;;
46731;SDS011;32477;51.474;5.696;2023-02-28T07:32:56;11.55;;;5.07;;
46731;SDS011;32477;51.474;5.696;2023-02-28T07:35:22;14.20;;;5.05;;
46731;SDS011;32477;51.474;5.696;2023-02-28T07:37:48;11.48;;;5.05;;
46731;SDS011;32477;51.474;5.696;2023-02-28T07:40:13;12.88;;;4.80;;
46731;SDS011;32477;51.474;5.696;2023-02-28T07:42:40;7.22;;;3.67;;
46731;SDS011;32477;51.474;5.696;2023-02-28T07:45:06;11.18;;;4.30;;
46731;SDS011;32477;51.474;5.696;2023-02-28T07:47:36;9.85;;;4.25;;
46731;SDS011;32477;51.474;5.696;2023-02-28T07:50:03;9.15;;;4.50;;
46731;SDS011;32477;51.474;5.696;2023-02-28T07:52:30;6.75;;;3.80;;
46731;SDS011;32477;51.474;5.696;2023-02-28T07:54:55;7.93;;;3.55;;
46731;SDS011;32477;51.474;5.696;2023-02-28T07:57:21;8.65;;;4.28;;
46731;SDS011;32477;51.474;5.696;2023-02-28T07:59:47;5.80;;;3.75;;
46731;SDS011;32477;51.474;5.696;2023-02-28T08:02:16;4.85;;;3.10;;
46731;SDS011;32477;51.474;5.696;2023-02-28T08:04:43;5.35;;;3.45;;
46731;SDS011;32477;51.474;5.696;2023-02-28T08:07:09;10.00;;;3.30;;
46731;SDS011;32477;51.474;5.696;2023-02-28T08:09:38;7.82;;;3.25;;
46731;SDS011;32477;51.474;5.696;2023-02-28T08:12:04;7.20;;;3.42;;
46731;SDS011;32477;51.474;5.696;2023-02-28T08:14:30;5.10;;;2.80;;
46731;SDS011;32477;51.474;5.696;2023-02-28T08:16:56;6.22;;;2.90;;
46731;SDS011;32477;51.474;5.696;2023-02-28T08:19:22;4.80;;;2.63;;
46731;SDS011;32477;51.474;5.696;2023-02-28T08:21:47;5.10;;;3.00;;
46731;SDS011;32477;51.474;5.696;2023-02-28T08:24:13;8.15;;;3.47;;
46731;SDS011;32477;51.474;5.696;2023-02-28T08:26:38;6.75;;;3.50;;
46731;SDS011;32477;51.474;5.696;2023-02-28T08:29:04;6.55;;;3.25;;
46731;SDS011;32477;51.474;5.696;2023-02-28T08:31:30;5.35;;;3.47;;
46731;SDS011;32477;51.474;5.696;2023-02-28T08:33:56;6.82;;;2.90;;
46731;SDS011;32477;51.474;5.696;2023-02-28T08:36:24;5.80;;;2.78;;
46731;SDS011;32477;51.474;5.696;2023-02-28T08:38:51;5.90;;;2.83;;
46731;SDS011;32477;51.474;5.696;2023-02-28T08:41:16;4.60;;;2.80;;
46731;SDS011;32477;51.474;5.696;2023-02-28T08:43:42;3.35;;;2.45;;
46731;SDS011;32477;51.474;5.696;2023-02-28T08:46:08;4.05;;;2.55;;
46731;SDS011;32477;51.474;5.696;2023-02-28T08:48:37;3.70;;;2.38;;
46731;SDS011;32477;51.474;5.696;2023-02-28T08:51:04;6.13;;;2.63;;
46731;SDS011;32477;51.474;5.696;2023-02-28T08:53:32;3.67;;;2.22;;
46731;SDS011;32477;51.474;5.696;2023-02-28T08:56:03;7.75;;;2.78;;
46731;SDS011;32477;51.474;5.696;2023-02-28T08:58:31;4.65;;;2.22;;
46731;SDS011;32477;51.474;5.696;2023-02-28T09:00:57;8.07;;;2.28;;
46731;SDS011;32477;51.474;5.696;2023-02-28T09:03:22;3.67;;;2.08;;
46731;SDS011;32477;51.474;5.696;2023-02-28T09:05:52;4.28;;;2.33;;
46731;SDS011;32477;51.474;5.696;2023-02-28T09:08:22;7.28;;;2.15;;
46731;SDS011;32477;51.474;5.696;2023-02-28T09:10:51;4.13;;;1.73;;
46731;SDS011;32477;51.474;5.696;2023-02-28T09:13:18;5.35;;;2.22;;
46731;SDS011;32477;51.474;5.696;2023-02-28T09:15:44;4.82;;;1.85;;
46731;SDS011;32477;51.474;5.696;2023-02-28T09:18:10;9.27;;;2.03;;
46731;SDS011;32477;51.474;5.696;2023-02-28T09:20:39;2.67;;;1.70;;
46731;SDS011;32477;51.474;5.696;2023-02-28T09:23:06;3.45;;;1.58;;
46731;SDS011;32477;51.474;5.696;2023-02-28T09:25:33;2.88;;;1.45;;
46731;SDS011;32477;51.474;5.696;2023-02-28T09:27:59;6.15;;;1.90;;
46731;SDS011;32477;51.474;5.696;2023-02-28T09:30:25;3.03;;;1.95;;
46731;SDS011;32477;51.474;5.696;2023-02-28T09:32:50;5.05;;;1.88;;
46731;SDS011;32477;51.474;5.696;2023-02-28T09:35:20;7.28;;;1.77;;
46731;SDS011;32477;51.474;5.696;2023-02-28T09:37:47;2.55;;;1.60;;
46731;SDS011;32477;51.474;5.696;2023-02-28T09:40:14;3.33;;;1.75;;
46731;SDS011;32477;51.474;5.696;2023-02-28T09:42:44;3.47;;;1.60;;
46731;SDS011;32477;51.474;5.696;2023-02-28T09:45:32;2.40;;;1.38;;
46731;SDS011;32477;51.474;5.696;2023-02-28T09:48:21;3.00;;;1.90;;
46731;SDS011;32477;51.474;5.696;2023-02-28T09:50:52;1.75;;;1.38;;
46731;SDS011;32477;51.474;5.696;2023-02-28T09:53:26;4.10;;;1.50;;
46731;SDS011;32477;51.474;5.696;2023-02-28T09:58:55;6.85;;;1.70;;
46731;SDS011;32477;51.474;5.696;2023-02-28T10:07:00;2.60;;;1.55;;
46731;SDS011;32477;51.474;5.696;2023-02-28T10:09:31;4.15;;;1.83;;
46731;SDS011;32477;51.474;5.696;2023-02-28T10:12:04;11.50;;;4.95;;
46731;SDS011;32477;51.474;5.696;2023-02-28T10:14:32;5.57;;;2.05;;
46731;SDS011;32477;51.474;5.696;2023-02-28T10:17:01;15.07;;;5.40;;
46731;SDS011;32477;51.474;5.696;2023-02-28T10:19:33;3.33;;;1.70;;
46731;SDS011;32477;51.474;5.696;2023-02-28T10:24:50;3.35;;;1.70;;
46731;SDS011;32477;51.474;5.696;2023-02-28T10:27:18;10.18;;;5.65;;
46731;SDS011;32477;51.474;5.696;2023-02-28T10:29:52;5.80;;;2.47;;
46731;SDS011;32477;51.474;5.696;2023-02-28T10:32:20;5.45;;;2.65;;
46731;SDS011;32477;51.474;5.696;2023-02-28T10:37:33;4.82;;;2.45;;
46731;SDS011;32477;51.474;5.696;2023-02-28T10:40:04;5.75;;;1.77;;
46731;SDS011;32477;51.474;5.696;2023-02-28T10:42:32;5.88;;;1.75;;
46731;SDS011;32477;51.474;5.696;2023-02-28T10:47:38;3.92;;;1.75;;
46731;SDS011;32477;51.474;5.696;2023-02-28T10:52:52;5.00;;;2.08;;
46731;SDS011;32477;51.474;5.696;2023-02-28T10:55:23;3.92;;;1.70;;
46731;SDS011;32477;51.474;5.696;2023-02-28T10:57:51;4.38;;;1.67;;
46731;SDS011;32477;51.474;5.696;2023-02-28T11:00:18;3.63;;;1.65;;
46731;SDS011;32477;51.474;5.696;2023-02-28T11:02:46;5.53;;;1.80;;
46731;SDS011;32477;51.474;5.696;2023-02-28T11:05:29;3.30;;;1.60;;
46731;SDS011;32477;51.474;5.696;2023-02-28T11:08:13;3.42;;;2.00;;
46731;SDS011;32477;51.474;5.696;2023-02-28T11:10:53;2.45;;;1.55;;
46731;SDS011;32477;51.474;5.696;2023-02-28T11:13:21;2.78;;;1.58;;
46731;SDS011;32477;51.474;5.696;2023-02-28T11:15:57;5.25;;;1.60;;
46731;SDS011;32477;51.474;5.696;2023-02-28T11:18:35;4.28;;;2.70;;
46731;SDS011;32477;51.474;5.696;2023-02-28T11:21:16;5.22;;;1.95;;
46731;SDS011;32477;51.474;5.696;2023-02-28T11:23:51;2.65;;;1.88;;
46731;SDS011;32477;51.474;5.696;2023-02-28T11:27:02;4.07;;;1.83;;
46731;SDS011;32477;51.474;5.696;2023-02-28T11:29:16;4.03;;;1.55;;
46731;SDS011;32477;51.474;5.696;2023-02-28T11:32:00;3.85;;;1.77;;
46731;SDS011;32477;51.474;5.696;2023-02-28T11:34:26;3.67;;;1.85;;
46731;SDS011;32477;51.474;5.696;2023-02-28T11:36:53;4.00;;;1.67;;
46731;SDS011;32477;51.474;5.696;2023-02-28T11:39:21;4.55;;;1.77;;
46731;SDS011;32477;51.474;5.696;2023-02-28T11:42:01;2.85;;;1.92;;
46731;SDS011;32477;51.474;5.696;2023-02-28T11:44:43;4.40;;;1.75;;
46731;SDS011;32477;51.474;5.696;2023-02-28T11:47:38;2.33;;;1.70;;
46731;SDS011;32477;51.474;5.696;2023-02-28T11:50:21;3.28;;;2.10;;
46731;SDS011;32477;51.474;5.696;2023-02-28T11:55:53;2.67;;;1.95;;
46731;SDS011;32477;51.474;5.696;2023-02-28T12:01:18;5.38;;;1.98;;
46731;SDS011;32477;51.474;5.696;2023-02-28T12:12:21;2.95;;;1.70;;
46731;SDS011;32477;51.474;5.696;2023-02-28T12:20:59;9.60;;;1.95;;
46731;SDS011;32477;51.474;5.696;2023-02-28T12:26:40;2.55;;;1.70;;
46731;SDS011;32477;51.474;5.696;2023-02-28T12:32:09;6.03;;;2.15;;
46731;SDS011;32477;51.474;5.696;2023-02-28T12:34:42;3.90;;;2.28;;
46731;SDS011;32477;51.474;5.696;2023-02-28T12:37:32;3.25;;;1.70;;
46731;SDS011;32477;51.474;5.696;2023-02-28T12:42:42;3.42;;;1.50;;
46731;SDS011;32477;51.474;5.696;2023-02-28T12:45:23;4.72;;;1.83;;
46731;SDS011;32477;51.474;5.696;2023-02-28T12:47:52;4.72;;;2.10;;
46731;SDS011;32477;51.474;5.696;2023-02-28T12:50:25;2.28;;;1.63;;
46731;SDS011;32477;51.474;5.696;2023-02-28T12:52:59;3.03;;;1.63;;
46731;SDS011;32477;51.474;5.696;2023-02-28T12:58:45;3.60;;;2.08;;
46731;SDS011;32477;51.474;5.696;2023-02-28T13:09:29;5.13;;;2.03;;
46731;SDS011;32477;51.474;5.696;2023-02-28T13:11:55;3.55;;;1.90;;
46731;SDS011;32477;51.474;5.696;2023-02-28T13:19:36;2.95;;;1.70;;
46731;SDS011;32477;51.474;5.696;2023-02-28T13:27:56;3.08;;;1.52;;
46731;SDS011;32477;51.474;5.696;2023-02-28T13:46:31;5.30;;;1.88;;
46731;SDS011;32477;51.474;5.696;2023-02-28T13:49:40;3.10;;;1.95;;
46731;SDS011;32477;51.474;5.696;2023-02-28T14:00:18;4.65;;;1.70;;
46731;SDS011;32477;51.474;5.696;2023-02-28T14:03:08;4.97;;;2.55;;
46731;SDS011;32477;51.474;5.696;2023-02-28T14:05:51;3.22;;;1.92;;
46731;SDS011;32477;51.474;5.696;2023-02-28T14:08:44;3.53;;;2.20;;
46731;SDS011;32477;51.474;5.696;2023-02-28T14:11:52;5.63;;;2.30;;
46731;SDS011;32477;51.474;5.696;2023-02-28T14:17:05;6.93;;;2.40;;
46731;SDS011;32477;51.474;5.696;2023-02-28T14:19:34;3.42;;;2.40;;
46731;SDS011;32477;51.474;5.696;2023-02-28T14:36:08;3.22;;;2.08;;
46731;SDS011;32477;51.474;5.696;2023-02-28T14:38:59;2.70;;;2.00;;
46731;SDS011;32477;51.474;5.696;2023-02-28T14:44:01;4.35;;;2.38;;
46731;SDS011;32477;51.474;5.696;2023-02-28T14:46:38;6.68;;;2.33;;
46731;SDS011;32477;51.474;5.696;2023-02-28T14:49:05;4.57;;;2.50;;
46731;SDS011;32477;51.474;5.696;2023-02-28T14:51:37;8.38;;;2.58;;
46731;SDS011;32477;51.474;5.696;2023-02-28T14:54:03;3.95;;;2.30;;
46731;SDS011;32477;51.474;5.696;2023-02-28T14:56:36;3.97;;;2.35;;
46731;SDS011;32477;51.474;5.696;2023-02-28T14:59:03;3.28;;;2.00;;
46731;SDS011;32477;51.474;5.696;2023-02-28T15:01:30;4.70;;;2.50;;
46731;SDS011;32477;51.474;5.696;2023-02-28T15:04:00;3.42;;;2.05;;
46731;SDS011;32477;51.474;5.696;2023-02-28T15:06:29;4.45;;;2.47;;
46731;SDS011;32477;51.474;5.696;2023-02-28T15:09:14;4.65;;;2.72;;
46731;SDS011;32477;51.474;5.696;2023-02-28T15:11:41;4.13;;;2.22;;
46731;SDS011;32477;51.474;5.696;2023-02-28T15:14:13;2.08;;;1.70;;
46731;SDS011;32477;51.474;5.696;2023-02-28T15:16:45;5.47;;;2.72;;
46731;SDS011;32477;51.474;5.696;2023-02-28T15:19:20;4.03;;;2.50;;
46731;SDS011;32477;51.474;5.696;2023-02-28T15:21:51;4.30;;;2.53;;
46731;SDS011;32477;51.474;5.696;2023-02-28T15:24:35;5.30;;;2.42;;
46731;SDS011;32477;51.474;5.696;2023-02-28T15:27:05;7.07;;;2.67;;
46731;SDS011;32477;51.474;5.696;2023-02-28T15:29:41;6.43;;;2.40;;
46731;SDS011;32477;51.474;5.696;2023-02-28T15:32:20;3.95;;;2.40;;
46731;SDS011;32477;51.474;5.696;2023-02-28T15:34:49;3.80;;;2.38;;
46731;SDS011;32477;51.474;5.696;2023-02-28T15:40:26;4.72;;;2.53;;
46731;SDS011;32477;51.474;5.696;2023-02-28T15:43:31;4.60;;;2.53;;
46731;SDS011;32477;51.474;5.696;2023-02-28T15:45:59;10.13;;;3.97;;
46731;SDS011;32477;51.474;5.696;2023-02-28T15:48:27;8.75;;;3.85;;
46731;SDS011;32477;51.474;5.696;2023-02-28T15:53:33;6.07;;;2.42;;
46731;SDS011;32477;51.474;5.696;2023-02-28T15:56:45;4.70;;;2.50;;
46731;SDS011;32477;51.474;5.696;2023-02-28T15:58:56;5.13;;;2.55;;
46731;SDS011;32477;51.474;5.696;2023-02-28T16:01:31;5.57;;;2.53;;
46731;SDS011;32477;51.474;5.696;2023-02-28T16:06:35;4.30;;;3.05;;
46731;SDS011;32477;51.474;5.696;2023-02-28T16:09:02;4.28;;;2.75;;
46731;SDS011;32477;51.474;5.696;2023-02-28T16:11:30;3.22;;;2.40;;
46731;SDS011;32477;51.474;5.696;2023-02-28T16:13:57;3.70;;;2.28;;
46731;SDS011;32477;51.474;5.696;2023-02-28T16:16:24;3.65;;;2.50;;
46731;SDS011;32477;51.474;5.696;2023-02-28T16:18:51;4.82;;;3.08;;
46731;SDS011;32477;51.474;5.696;2023-02-28T16:21:17;3.83;;;2.50;;
46731;SDS011;32477;51.474;5.696;2023-02-28T16:23:42;4.10;;;2.45;;
46731;SDS011;32477;51.474;5.696;2023-02-28T16:26:09;6.97;;;3.63;;
46731;SDS011;32477;51.474;5.696;2023-02-28T16:28:44;8.27;;;3.03;;
46731;SDS011;32477;51.474;5.696;2023-02-28T16:31:10;7.93;;;2.55;;
46731;SDS011;32477;51.474;5.696;2023-02-28T16:33:41;4.70;;;3.15;;
46731;SDS011;32477;51.474;5.696;2023-02-28T16:36:10;3.85;;;2.55;;
46731;SDS011;32477;51.474;5.696;2023-02-28T16:38:38;5.25;;;2.63;;
46731;SDS011;32477;51.474;5.696;2023-02-28T16:41:04;8.23;;;2.65;;
46731;SDS011;32477;51.474;5.696;2023-02-28T16:43:30;7.40;;;2.63;;
46731;SDS011;32477;51.474;5.696;2023-02-28T16:45:57;5.07;;;2.70;;
46731;SDS011;32477;51.474;5.696;2023-02-28T16:48:23;5.32;;;2.90;;
46731;SDS011;32477;51.474;5.696;2023-02-28T16:50:49;5.13;;;2.90;;
46731;SDS011;32477;51.474;5.696;2023-02-28T16:53:16;4.63;;;2.78;;
46731;SDS011;32477;51.474;5.696;2023-02-28T16:55:42;4.65;;;2.90;;
46731;SDS011;32477;51.474;5.696;2023-02-28T16:58:13;3.42;;;2.60;;
46731;SDS011;32477;51.474;5.696;2023-02-28T17:00:40;6.68;;;2.67;;
46731;SDS011;32477;51.474;5.696;2023-02-28T17:03:22;4.55;;;2.90;;
46731;SDS011;32477;51.474;5.696;2023-02-28T17:05:49;6.53;;;3.33;;
46731;SDS011;32477;51.474;5.696;2023-02-28T17:08:15;4.88;;;3.03;;
46731;SDS011;32477;51.474;5.696;2023-02-28T17:10:41;5.35;;;3.20;;
46731;SDS011;32477;51.474;5.696;2023-02-28T17:13:07;6.85;;;3.00;;
46731;SDS011;32477;51.474;5.696;2023-02-28T17:15:32;5.10;;;3.15;;
46731;SDS011;32477;51.474;5.696;2023-02-28T17:17:58;4.50;;;2.72;;
46731;SDS011;32477;51.474;5.696;2023-02-28T17:20:24;7.40;;;3.85;;
46731;SDS011;32477;51.474;5.696;2023-02-28T17:22:51;5.93;;;2.80;;
46731;SDS011;32477;51.474;5.696;2023-02-28T17:25:17;8.88;;;2.55;;
46731;SDS011;32477;51.474;5.696;2023-02-28T17:27:43;2.95;;;2.33;;
46731;SDS011;32477;51.474;5.696;2023-02-28T17:30:20;5.07;;;3.08;;
46731;SDS011;32477;51.474;5.696;2023-02-28T17:32:52;9.73;;;2.95;;
46731;SDS011;32477;51.474;5.696;2023-02-28T17:35:18;6.35;;;3.03;;
46731;SDS011;32477;51.474;5.696;2023-02-28T17:37:44;4.88;;;2.92;;
46731;SDS011;32477;51.474;5.696;2023-02-28T17:40:17;4.70;;;3.20;;
46731;SDS011;32477;51.474;5.696;2023-02-28T17:42:45;4.97;;;3.00;;
46731;SDS011;32477;51.474;5.696;2023-02-28T17:45:11;10.00;;;3.58;;